Time;durP1;ratioP1;P1;durP2;ratioP2;P2;SDS_P1;SDS_P2;PMS_P1;PMS_P2;Temp;Humidity;BMP_temperature;BMP_pressure;BME280_temperature;BME280_humidity;BME280_pressure;Samples;Min_cycle;Max_cycle;Signal;HPM_P1;HPM_P2
2024/04/01 00:01:21;;;;;;;4.00;1.30;;;;;;;12.23;100.00;99233.53;5248220;28;20244;-78
2024/04/01 00:03:55;;;;;;;3.25;1.30;;;;;;;12.28;100.00;99241.69;5239990;28;20044;-78
2024/04/01 00:06:27;;;;;;;2.15;1.02;;;;;;;12.18;100.00;99244.56;5246709;28;20024;-78
2024/04/01 00:08:59;;;;;;;2.75;1.00;;;;;;;12.17;100.00;99247.38;5246924;28;20039;-78
2024/04/01 00:11:31;;;;;;;3.00;1.33;;;;;;;12.16;100.00;99235.25;5249368;28;20037;-78
2024/04/01 00:14:03;;;;;;;3.78;1.30;;;;;;;12.14;100.00;99229.38;5246908;28;20486;-78
2024/04/01 00:16:35;;;;;;;2.53;1.17;;;;;;;12.11;100.00;99227.09;5244728;28;20376;-78
2024/04/01 00:19:07;;;;;;;2.75;1.45;;;;;;;12.06;100.00;99232.06;5241933;28;20035;-78
2024/04/01 00:21:39;;;;;;;1.83;1.07;;;;;;;12.03;100.00;99221.94;5225800;28;20045;-78
2024/04/01 00:24:11;;;;;;;1.80;1.00;;;;;;;11.98;100.00;99230.34;5243983;28;20286;-78
2024/04/01 00:26:43;;;;;;;2.10;1.02;;;;;;;11.95;100.00;99230.69;5245502;28;20025;-77
2024/04/01 00:29:15;;;;;;;1.83;1.20;;;;;;;11.96;100.00;99229.69;5248782;28;20041;-78
2024/04/01 00:31:47;;;;;;;1.92;1.05;;;;;;;11.93;100.00;99232.66;5250221;28;20051;-78
2024/04/01 00:34:19;;;;;;;3.00;1.20;;;;;;;11.91;100.00;99230.22;5247895;28;20466;-78
2024/04/01 00:36:51;;;;;;;2.13;0.88;;;;;;;11.88;100.00;99224.53;5249409;28;20063;-77
2024/04/01 00:39:22;;;;;;;2.47;0.90;;;;;;;11.89;100.00;99215.66;5248850;28;20028;-78
2024/04/01 00:41:54;;;;;;;3.10;1.10;;;;;;;11.86;100.00;99211.59;5248375;28;20203;-78
2024/04/01 00:44:26;;;;;;;1.50;0.80;;;;;;;11.83;100.00;99206.69;5247885;28;20053;-78
2024/04/01 00:46:58;;;;;;;2.15;0.80;;;;;;;11.82;100.00;99207.66;5247503;28;20474;-77
2024/04/01 00:49:31;;;;;;;3.40;0.98;;;;;;;11.79;100.00;99197.53;5247592;28;20040;-78
2024/04/01 00:52:03;;;;;;;2.17;1.20;;;;;;;11.80;100.00;99201.78;5247998;28;20041;-78
2024/04/01 00:54:35;;;;;;;4.00;1.13;;;;;;;11.67;100.00;99176.16;5246425;28;20037;-78
2024/04/01 00:57:07;;;;;;;2.28;1.00;;;;;;;11.77;100.00;99182.94;5247561;28;20028;-78
2024/04/01 00:59:39;;;;;;;3.33;1.30;;;;;;;11.77;100.00;99182.94;5247444;28;20036;-78
2024/04/01 01:02:12;;;;;;;1.95;0.90;;;;;;;11.74;100.00;99183.28;5247060;28;20047;-78
2024/04/01 01:04:44;;;;;;;2.07;1.03;;;;;;;11.69;100.00;99170.72;5247500;28;20029;-78
2024/04/01 01:07:17;;;;;;;1.23;0.73;;;;;;;11.74;100.00;99184.09;5246638;28;20318;-78
2024/04/01 01:09:50;;;;;;;2.22;0.90;;;;;;;11.68;100.00;99182.22;5245682;28;20783;-78
2024/04/01 01:12:22;;;;;;;2.42;1.20;;;;;;;11.75;100.00;99195.44;5246997;28;20043;-78
2024/04/01 01:14:54;;;;;;;1.77;1.00;;;;;;;11.68;100.00;99198.75;5247131;28;20094;-78
2024/04/01 01:17:26;;;;;;;2.83;1.00;;;;;;;11.63;100.00;99197.66;5247183;28;20041;-78
2024/04/01 01:19:58;;;;;;;3.88;1.23;;;;;;;11.65;100.00;99200.91;5246074;28;20037;-78
2024/04/01 01:22:39;;;;;;;1.88;0.80;;;;;;;11.81;100.00;99199.97;5247776;28;20051;-78
2024/04/01 01:25:11;;;;;;;2.65;0.90;;;;;;;11.58;100.00;99213.91;5246173;28;20036;-78
2024/04/01 01:27:43;;;;;;;1.85;0.90;;;;;;;11.57;100.00;99211.47;5246671;28;20032;-78
2024/04/01 01:30:15;;;;;;;1.38;0.68;;;;;;;11.56;100.00;99209.88;5246774;28;20044;-78
2024/04/01 01:32:50;;;;;;;1.30;0.75;;;;;;;11.56;100.00;99209.88;5247061;28;20675;-78
2024/04/01 01:35:23;;;;;;;2.67;1.15;;;;;;;11.54;100.00;99203.97;5245810;28;20701;-78
2024/04/01 01:37:55;;;;;;;2.50;0.73;;;;;;;11.58;100.00;99207.88;5246261;28;20044;-78
2024/04/01 01:40:27;;;;;;;1.70;0.80;;;;;;;11.54;100.00;99203.97;5244729;28;20038;-78
2024/04/01 01:42:59;;;;;;;1.88;0.80;;;;;;;11.51;100.00;99204.31;5246512;28;20051;-78
2024/04/01 01:45:31;;;;;;;1.30;0.70;;;;;;;11.49;100.00;99207.13;5246807;28;20059;-78
2024/04/01 01:48:06;;;;;;;1.30;0.60;;;;;;;11.56;100.00;99212.47;5245745;28;20033;-78
2024/04/01 01:50:38;;;;;;;2.35;0.93;;;;;;;11.47;100.00;99209.09;5248201;28;20041;-78
2024/04/01 01:53:10;;;;;;;1.58;0.80;;;;;;;11.43;100.00;99206.00;5249463;28;20033;-78
2024/04/01 01:55:42;;;;;;;3.13;1.00;;;;;;;11.48;100.00;99208.13;5249893;28;20044;-78
2024/04/01 01:58:14;;;;;;;1.63;0.93;;;;;;;11.43;100.00;99208.63;5245905;28;20033;-77
2024/04/01 02:00:46;;;;;;;4.97;0.90;;;;;;;11.40;100.00;99216.88;5245112;28;20061;-77
2024/04/01 02:03:18;;;;;;;1.80;0.60;;;;;;;11.39;100.00;99214.41;5246640;28;20039;-77
2024/04/01 02:05:50;;;;;;;1.23;0.57;;;;;;;11.33;100.00;99207.25;5245929;28;20024;-77
2024/04/01 02:08:22;;;;;;;1.25;0.80;;;;;;;11.45;100.00;99225.00;5242559;28;20028;-77
2024/04/01 02:10:56;;;;;;;2.22;0.65;;;;;;;11.40;100.00;99222.13;5242857;28;21046;-77
2024/04/01 02:13:28;;;;;;;2.78;1.00;;;;;;;11.35;100.00;99213.13;5245056;28;20033;-77
2024/04/01 02:16:18;;;;;;;2.00;0.80;;;;;;;11.66;100.00;99213.84;5243893;28;20390;-77
2024/04/01 02:18:52;;;;;;;3.55;1.13;;;;;;;11.37;100.00;99217.22;5243233;28;20041;-77
2024/04/01 02:21:24;;;;;;;2.58;1.00;;;;;;;11.31;100.00;99214.47;5246084;28;20044;-77
2024/04/01 02:23:56;;;;;;;2.42;0.75;;;;;;;11.26;100.00;99203.69;5245773;28;20578;-77
2024/04/01 02:26:28;;;;;;;1.30;0.70;;;;;;;11.36;100.00;99223.41;5245936;28;20409;-77
2024/04/01 02:29:00;;;;;;;2.05;0.90;;;;;;;11.36;100.00;99217.38;5244970;28;20033;-77
2024/04/01 02:31:32;;;;;;;2.30;0.82;;;;;;;11.34;100.00;99214.94;5244865;28;20037;-77
2024/04/01 02:34:04;;;;;;;1.42;0.70;;;;;;;11.34;100.00;99214.94;5246777;28;20040;-77
2024/04/01 02:36:36;;;;;;;2.13;0.88;;;;;;;11.31;100.00;99211.84;5246906;28;20028;-77
2024/04/01 02:39:16;;;;;;;1.83;0.80;;;;;;;11.26;100.00;99204.50;5227054;28;20064;-77
2024/04/01 02:41:50;;;;;;;4.13;0.85;;;;;;;11.30;100.00;99225.94;5246173;28;20521;-77
2024/04/01 02:44:22;;;;;;;3.53;0.93;;;;;;;11.27;100.00;99221.03;5244660;28;20055;-77
2024/04/01 02:46:54;;;;;;;2.40;0.95;;;;;;;11.29;100.00;99221.66;5244367;28;20037;-77
2024/04/01 02:49:27;;;;;;;1.55;0.65;;;;;;;11.23;100.00;99219.75;5244269;28;20598;-77
2024/04/01 02:51:59;;;;;;;2.65;1.00;;;;;;;11.27;100.00;99208.75;5244018;28;20855;-78
2024/04/01 02:54:31;;;;;;;1.73;0.90;;;;;;;11.25;100.00;99202.03;5242010;28;20064;-77
2024/04/01 02:57:03;;;;;;;3.70;0.77;;;;;;;11.23;100.00;99210.09;5245816;28;20043;-77
2024/04/01 02:59:35;;;;;;;1.98;0.90;;;;;;;11.26;100.00;99204.50;5244967;28;20037;-77
2024/04/01 03:02:10;;;;;;;2.50;0.90;;;;;;;11.23;100.00;99199.59;5246849;28;20048;-78
2024/04/01 03:04:43;;;;;;;1.73;0.82;;;;;;;11.20;100.00;99208.63;5247635;28;20028;-78
2024/04/01 03:07:15;;;;;;;1.55;0.70;;;;;;;11.26;100.00;99206.31;5247833;28;20044;-78
2024/04/01 03:09:47;;;;;;;3.47;1.05;;;;;;;11.22;100.00;99200.59;5249984;28;20437;-78
2024/04/01 03:12:18;;;;;;;1.73;1.00;;;;;;;11.20;100.00;99211.25;5248770;28;20035;-78
2024/04/01 03:14:52;;;;;;;1.88;1.00;;;;;;;11.26;100.00;99215.00;5248733;28;20044;-78
2024/04/01 03:17:29;;;;;;;1.48;0.80;;;;;;;11.22;100.00;99212.91;5247951;28;20036;-78
2024/04/01 03:20:02;;;;;;;1.98;1.10;;;;;;;11.19;100.00;99208.81;5249387;28;20425;-78
2024/04/01 03:22:34;;;;;;;1.77;1.10;;;;;;;11.22;100.00;99197.97;5247888;28;20036;-78
2024/04/01 03:25:06;;;;;;;1.67;0.80;;;;;;;11.18;100.00;99197.50;5245810;28;20914;-78
2024/04/01 03:27:38;;;;;;;1.67;0.85;;;;;;;11.20;100.00;99186.84;5246732;28;20028;-78
2024/04/01 03:30:10;;;;;;;2.53;0.90;;;;;;;11.15;100.00;99181.31;5245877;28;20044;-78
2024/04/01 03:32:42;;;;;;;2.30;0.95;;;;;;;11.16;100.00;99202.09;5246288;28;20045;-78
2024/04/01 03:35:14;;;;;;;1.98;0.90;;;;;;;11.16;100.00;99193.44;5247451;28;20033;-78
2024/04/01 03:37:46;;;;;;;1.75;0.90;;;;;;;11.14;100.00;99188.38;5246264;28;20675;-78
2024/04/01 03:40:19;;;;;;;2.15;0.88;;;;;;;11.10;100.00;99191.50;5244422;28;20051;-78
2024/04/01 03:42:51;;;;;;;3.50;1.30;;;;;;;11.14;100.00;99192.81;5244478;28;20049;-78
2024/04/01 03:45:22;;;;;;;2.08;1.00;;;;;;;11.00;100.00;99185.69;5247273;28;20116;-78
2024/04/01 03:47:54;;;;;;;1.40;0.88;;;;;;;11.00;100.00;99198.78;5246738;28;20043;-78
2024/04/01 03:50:26;;;;;;;3.15;0.85;;;;;;;10.95;100.00;99200.13;5245808;28;20097;-79
2024/04/01 03:52:58;;;;;;;2.13;1.00;;;;;;;10.91;100.00;99201.47;5247270;28;20126;-78
2024/04/01 03:55:30;;;;;;;2.72;0.80;;;;;;;10.88;100.00;99201.78;5247156;28;20029;-78
2024/04/01 03:58:02;;;;;;;3.45;0.85;;;;;;;10.84;100.00;99204.94;5246085;28;20485;-79
2024/04/01 04:00:34;;;;;;;2.45;0.75;;;;;;;10.86;100.00;99223.91;5246581;28;20048;-79
2024/04/01 04:03:07;;;;;;;2.57;0.77;;;;;;;10.89;100.00;99220.94;5247164;28;20501;-79
2024/04/01 04:05:39;;;;;;;2.00;1.00;;;;;;;10.91;100.00;99214.56;5250590;28;20287;-78
2024/04/01 04:08:11;;;;;;;2.60;0.90;;;;;;;10.84;100.00;99205.75;5249317;28;20028;-79
2024/04/01 04:10:43;;;;;;;1.90;0.85;;;;;;;10.88;100.00;99211.47;5251770;28;20033;-78
2024/04/01 04:13:15;;;;;;;1.70;0.70;;;;;;;10.86;100.00;99209.00;5251046;28;20029;-78
2024/04/01 04:15:46;;;;;;;1.42;0.73;;;;;;;10.86;100.00;99208.19;5250875;28;20521;-78
2024/04/01 04:18:19;;;;;;;2.45;0.80;;;;;;;10.82;100.00;99201.66;5250573;28;20127;-78
2024/04/01 04:20:54;;;;;;;1.23;0.73;;;;;;;10.85;100.00;99214.41;5248387;28;20057;-78
2024/04/01 04:23:28;;;;;;;2.75;1.00;;;;;;;10.86;100.00;99221.28;5250493;28;20443;-78
2024/04/01 04:26:00;;;;;;;3.45;1.00;;;;;;;10.86;100.00;99223.91;5250439;28;20107;-78
2024/04/01 04:28:32;;;;;;;2.22;1.10;;;;;;;10.80;100.00;99222.78;5250255;28;20029;-78
2024/04/01 04:31:03;;;;;;;1.48;0.80;;;;;;;10.86;100.00;99219.47;5252333;28;20474;-78
2024/04/01 04:33:35;;;;;;;2.33;0.80;;;;;;;10.85;100.00;99215.22;5252047;28;20024;-78
2024/04/01 04:36:07;;;;;;;2.35;0.80;;;;;;;10.83;100.00;99222.44;5252867;28;20094;-78
2024/04/01 04:38:39;;;;;;;1.80;0.80;;;;;;;10.79;100.00;99218.53;5254204;28;20032;-78
2024/04/01 04:41:11;;;;;;;1.80;1.02;;;;;;;10.78;100.00;99227.38;5255512;28;20079;-78
2024/04/01 04:43:44;;;;;;;3.90;1.02;;;;;;;10.78;100.00;99224.75;5252700;28;20044;-78
2024/04/01 04:46:16;;;;;;;1.52;0.90;;;;;;;10.83;100.00;99222.44;5250668;28;20032;-78
2024/04/01 04:48:49;;;;;;;2.00;1.10;;;;;;;10.80;100.00;99233.28;5249453;28;20032;-78
2024/04/01 04:51:21;;;;;;;1.60;0.90;;;;;;;10.84;100.00;99226.72;5249442;28;20660;-78
2024/04/01 04:53:53;;;;;;;1.73;0.90;;;;;;;10.82;100.00;99223.44;5249708;28;20079;-78
2024/04/01 04:56:24;;;;;;;2.65;0.80;;;;;;;10.84;100.00;99218.84;5248023;28;20045;-78
2024/04/01 04:58:57;;;;;;;2.13;1.00;;;;;;;10.86;100.00;99221.28;5248141;28;20037;-78
2024/04/01 05:01:29;;;;;;;3.17;1.05;;;;;;;10.84;100.00;99216.22;5249373;28;20375;-78
2024/04/01 05:04:01;;;;;;;1.80;1.30;;;;;;;10.83;100.00;99221.63;5249469;28;20029;-78
2024/04/01 05:06:33;;;;;;;4.27;1.13;;;;;;;10.82;100.00;99217.38;5249671;28;20033;-78
2024/04/01 05:09:05;;;;;;;2.80;1.17;;;;;;;10.85;100.00;99220.47;5249363;28;21011;-78
2024/04/01 05:11:37;;;;;;;1.80;0.80;;;;;;;10.83;100.00;99222.44;5250601;28;20029;-78
2024/04/01 05:14:09;;;;;;;1.77;0.80;;;;;;;10.84;100.00;99229.31;5249183;28;20139;-78
2024/04/01 05:16:41;;;;;;;2.65;1.25;;;;;;;10.84;100.00;99223.28;5249687;28;20037;-78
2024/04/01 05:19:13;;;;;;;3.37;1.20;;;;;;;10.83;100.00;99222.44;5249685;28;20044;-78
2024/04/01 05:21:45;;;;;;;1.98;1.10;;;;;;;10.79;100.00;99218.53;5250612;28;20036;-78
2024/04/01 05:24:17;;;;;;;1.60;1.10;;;;;;;10.75;100.00;99208.56;5248855;28;20029;-78
2024/04/01 05:26:49;;;;;;;2.05;1.23;;;;;;;10.80;100.00;99227.22;5248631;28;20061;-78
2024/04/01 05:29:21;;;;;;;2.10;0.98;;;;;;;10.82;100.00;99235.72;5247902;28;20079;-78
2024/04/01 05:31:53;;;;;;;1.92;1.10;;;;;;;10.77;100.00;99238.84;5249658;28;20099;-79
2024/04/01 05:34:26;;;;;;;2.85;1.10;;;;;;;10.82;100.00;99243.56;5248220;28;20035;-79
2024/04/01 05:36:58;;;;;;;4.43;1.20;;;;;;;10.84;100.00;99239.81;5247629;28;20092;-79
2024/04/01 05:39:30;;;;;;;2.72;0.98;;;;;;;10.82;100.00;99249.63;5248921;28;20810;-78
2024/04/01 05:42:02;;;;;;;4.00;1.40;;;;;;;10.84;100.00;99255.53;5247396;28;20036;-78
2024/04/01 05:44:34;;;;;;;2.38;1.20;;;;;;;10.82;100.00;99259.28;5246119;28;20808;-78
2024/04/01 05:47:06;;;;;;;1.50;1.00;;;;;;;10.78;100.00;99258.81;5248112;28;20043;-78
2024/04/01 05:49:38;;;;;;;2.45;1.40;;;;;;;10.83;100.00;99266.16;5228591;28;20041;-78
2024/04/01 05:52:10;;;;;;;1.70;0.98;;;;;;;10.81;100.00;99271.56;5246480;28;20041;-78
2024/04/01 05:54:42;;;;;;;1.90;1.20;;;;;;;10.83;100.00;99274.81;5248085;28;20032;-78
2024/04/01 05:57:14;;;;;;;2.42;0.93;;;;;;;10.83;100.00;99274.00;5247817;28;20633;-78
2024/04/01 05:59:48;;;;;;;6.50;1.20;;;;;;;10.85;100.00;99280.72;5245026;28;20037;-77
2024/04/01 06:02:19;;;;;;;1.88;1.17;;;;;;;10.84;100.00;99286.16;5245568;28;20529;-77
2024/04/01 06:04:51;;;;;;;2.75;1.58;;;;;;;10.84;100.00;99289.59;5245243;28;20037;-77
2024/04/01 06:07:26;;;;;;;2.83;1.30;;;;;;;10.84;100.00;99276.47;5245623;28;20060;-77
2024/04/01 06:09:58;;;;;;;2.03;1.08;;;;;;;10.85;100.00;99283.34;5241585;28;20047;-77
2024/04/01 06:12:30;;;;;;;2.45;1.40;;;;;;;10.86;100.00;99284.97;5245560;28;20292;-77
2024/04/01 06:15:02;;;;;;;2.20;1.05;;;;;;;10.89;100.00;99289.88;5245032;28;20033;-77
2024/04/01 06:17:34;;;;;;;1.55;1.08;;;;;;;10.94;100.00;99291.97;5244785;28;20036;-77
2024/04/01 06:20:07;;;;;;;1.92;1.13;;;;;;;10.92;100.00;99294.78;5245435;28;20033;-77
2024/04/01 06:22:39;;;;;;;1.75;1.27;;;;;;;10.96;100.00;99301.31;5244013;28;20044;-77
2024/04/01 06:25:11;;;;;;;2.70;1.48;;;;;;;10.97;100.00;99302.13;5245766;28;20032;-77
2024/04/01 06:27:42;;;;;;;3.30;1.58;;;;;;;10.98;100.00;99295.88;5241078;28;20487;-77
2024/04/01 06:30:14;;;;;;;2.05;1.27;;;;;;;11.01;100.00;99298.19;5244606;28;20032;-77
2024/04/01 06:32:46;;;;;;;2.75;1.33;;;;;;;11.03;100.00;99298.03;5243939;28;20029;-77
2024/04/01 06:35:18;;;;;;;3.67;1.40;;;;;;;11.05;100.00;99298.66;5245806;28;20039;-77
2024/04/01 06:37:50;;;;;;;2.63;1.60;;;;;;;11.04;100.00;99303.09;5243959;28;20528;-77
2024/04/01 06:40:22;;;;;;;1.88;1.35;;;;;;;11.07;100.00;99305.38;5244217;28;20060;-77
2024/04/01 06:42:54;;;;;;;2.20;1.40;;;;;;;11.07;100.00;99307.19;5243375;28;20215;-76
2024/04/01 06:45:26;;;;;;;4.13;1.48;;;;;;;11.08;100.00;99306.19;5248983;28;20044;-76
2024/04/01 06:47:58;;;;;;;2.15;1.48;;;;;;;11.09;100.00;99313.03;5255113;28;20295;-77
2024/04/01 06:50:29;;;;;;;2.90;1.77;;;;;;;11.09;100.00;99307.81;5249904;28;20032;-77
2024/04/01 06:53:01;;;;;;;3.45;1.70;;;;;;;11.10;100.00;99317.28;5243525;28;20658;-77
2024/04/01 06:55:33;;;;;;;3.30;1.90;;;;;;;11.11;100.00;99318.94;5241954;28;20044;-76
2024/04/01 06:58:08;;;;;;;3.28;1.73;;;;;;;11.10;100.00;99314.66;5243455;28;20482;-76
2024/04/01 07:00:41;;;;;;;3.25;1.30;;;;;;;11.11;100.00;99316.31;5244333;28;20044;-77
2024/04/01 07:03:13;;;;;;;2.45;1.63;;;;;;;11.18;100.00;99323.34;5246291;28;20586;-77
2024/04/01 07:05:45;;;;;;;4.40;1.83;;;;;;;11.20;100.00;99326.59;5244908;28;20406;-77
2024/04/01 07:08:17;;;;;;;2.17;1.70;;;;;;;11.17;100.00;99323.50;5244734;28;20033;-77
2024/04/01 07:10:49;;;;;;;2.25;1.80;;;;;;;11.17;100.00;99323.50;5244695;28;20043;-77
2024/04/01 07:13:21;;;;;;;3.80;2.50;;;;;;;11.19;100.00;99338.06;5244100;28;20495;-77
2024/04/01 07:15:53;;;;;;;3.90;1.95;;;;;;;11.21;100.00;99343.13;5242801;28;20028;-77
2024/04/01 07:18:25;;;;;;;3.05;2.22;;;;;;;11.21;100.00;99337.88;5243796;28;20060;-77
2024/04/01 07:20:57;;;;;;;3.10;1.98;;;;;;;11.23;100.00;99345.59;5245133;28;20039;-77
2024/04/01 07:23:29;;;;;;;4.70;2.17;;;;;;;11.19;100.00;99343.31;5244685;28;20402;-76
2024/04/01 07:26:01;;;;;;;2.83;2.20;;;;;;;11.26;100.00;99348.69;5244843;28;20029;-76
2024/04/01 07:28:33;;;;;;;4.60;2.08;;;;;;;11.28;100.00;99353.75;5243937;28;20418;-77
2024/04/01 07:31:06;;;;;;;3.50;2.28;;;;;;;11.27;100.00;99347.69;5245068;28;20029;-77
2024/04/01 07:33:37;;;;;;;4.23;2.60;;;;;;;11.36;100.00;99359.75;5246067;28;20032;-78
2024/04/01 07:36:09;;;;;;;4.28;2.20;;;;;;;11.35;100.00;99355.53;5248050;28;20039;-78
2024/04/01 07:38:41;;;;;;;5.18;2.22;;;;;;;11.37;100.00;99361.44;5247479;28;20145;-78
2024/04/01 07:41:13;;;;;;;2.90;2.00;;;;;;;11.39;100.00;99372.53;5251743;28;20029;-77
2024/04/01 07:43:45;;;;;;;2.80;2.22;;;;;;;11.40;100.00;99371.56;5252078;28;20060;-78
2024/04/01 07:46:17;;;;;;;4.80;2.88;;;;;;;11.39;100.00;99372.53;5252573;28;20037;-78
2024/04/01 07:48:49;;;;;;;4.10;2.70;;;;;;;11.38;100.00;99368.28;5251891;28;20035;-78
2024/04/01 07:51:21;;;;;;;3.67;2.45;;;;;;;11.37;100.00;99366.66;5253744;28;20033;-78
2024/04/01 07:53:53;;;;;;;3.17;2.33;;;;;;;11.43;100.00;99371.22;5253890;28;20039;-77
2024/04/01 07:56:25;;;;;;;3.72;2.80;;;;;;;11.47;100.00;99381.34;5252612;28;20033;-77
2024/04/01 07:58:58;;;;;;;3.83;2.70;;;;;;;11.50;100.00;99384.47;5249950;28;20128;-77
2024/04/01 08:01:30;;;;;;;4.43;2.58;;;;;;;11.47;100.00;99368.25;5246756;28;20020;-78
2024/04/01 08:04:02;;;;;;;3.55;3.13;;;;;;;11.55;100.00;99381.31;5250473;28;20036;-78
2024/04/01 08:06:34;;;;;;;4.97;3.22;;;;;;;11.56;100.00;99386.41;5251786;28;20028;-78
2024/04/01 08:09:06;;;;;;;4.05;3.00;;;;;;;11.61;100.00;99388.50;5249894;28;20032;-77
2024/04/01 08:11:38;;;;;;;3.83;3.42;;;;;;;11.62;100.00;99404.06;5252313;28;20045;-77
2024/04/01 08:14:09;;;;;;;4.45;3.03;;;;;;;11.66;100.00;99412.41;5248970;28;20048;-77
2024/04/01 08:16:45;;;;;;;3.53;3.20;;;;;;;11.69;100.00;99405.00;5248002;28;20039;-78
2024/04/01 08:19:17;;;;;;;5.72;3.70;;;;;;;11.69;100.00;99420.75;5248198;28;20028;-77
2024/04/01 08:21:49;;;;;;;4.35;3.50;;;;;;;11.78;100.00;99410.22;5247575;28;20083;-78
2024/04/01 08:24:21;;;;;;;4.95;3.55;;;;;;;11.78;100.00;99411.03;5248566;28;20036;-77
2024/04/01 08:26:53;;;;;;;4.43;3.53;;;;;;;11.82;100.00;99417.59;5230533;28;20055;-78
2024/04/01 08:29:24;;;;;;;3.50;3.10;;;;;;;11.87;100.00;99432.84;5246189;28;20024;-78
2024/04/01 08:31:56;;;;;;;4.45;3.42;;;;;;;11.95;100.00;99431.97;5247616;28;20056;-77
2024/04/01 08:34:28;;;;;;;3.97;3.47;;;;;;;12.07;100.00;99451.56;5248091;28;20056;-77
2024/04/01 08:37:00;;;;;;;4.53;3.20;;;;;;;12.12;100.00;99457.09;5249280;28;20033;-77
2024/04/01 08:39:32;;;;;;;3.67;3.17;;;;;;;12.18;100.00;99465.13;5248488;28;20033;-77
2024/04/01 08:42:08;;;;;;;3.78;3.17;;;;;;;12.22;100.00;99475.28;5249573;28;20396;-78
2024/04/01 08:44:41;;;;;;;5.28;3.30;;;;;;;12.20;100.00;99467.59;5249653;28;20044;-78
2024/04/01 08:47:14;;;;;;;4.05;3.00;;;;;;;12.23;100.00;99459.34;5248864;28;20044;-77
2024/04/01 08:50:04;;;;;;;3.47;3.05;;;;;;;12.46;100.00;99464.56;5247340;28;20047;-77
2024/04/01 08:53:08;;;;;;;3.53;2.88;;;;;;;12.49;100.00;99468.69;5247168;28;20036;-78
2024/04/01 08:55:41;;;;;;;3.40;2.88;;;;;;;12.18;100.00;99474.81;5248534;28;20033;-78
2024/04/01 08:58:13;;;;;;;4.65;2.78;;;;;;;12.14;100.00;99476.94;5248039;28;20043;-78
2024/04/01 09:00:46;;;;;;;4.38;3.00;;;;;;;12.13;100.00;99477.13;5249643;28;20036;-78
2024/04/01 09:03:18;;;;;;;3.55;3.10;;;;;;;12.10;100.00;99483.53;5250016;28;20797;-77
2024/04/01 09:05:54;;;;;;;3.70;3.15;;;;;;;12.06;100.00;99487.50;5249925;28;20073;-78
2024/04/01 09:08:27;;;;;;;4.20;3.70;;;;;;;12.06;100.00;99491.94;5249871;28;20688;-78
2024/04/01 09:10:59;;;;;;;4.05;3.13;;;;;;;12.04;100.00;99492.09;5249249;28;20048;-78
2024/04/01 09:13:31;;;;;;;4.13;3.50;;;;;;;12.02;100.00;99486.22;5249494;28;20043;-78
2024/04/01 09:16:03;;;;;;;4.00;3.60;;;;;;;11.97;100.00;99493.81;5248659;28;20024;-78
2024/04/01 09:18:36;;;;;;;4.90;3.67;;;;;;;11.99;100.00;99491.00;5247872;28;20037;-78
2024/04/01 09:21:10;;;;;;;5.03;3.75;;;;;;;11.96;100.00;99491.34;5247716;28;20502;-78
2024/04/01 09:23:42;;;;;;;4.53;3.53;;;;;;;11.92;100.00;99499.53;5250081;28;20024;-78
2024/04/01 09:26:15;;;;;;;7.27;4.30;;;;;;;11.87;100.00;99488.75;5251593;28;20135;-78
2024/04/01 09:28:46;;;;;;;5.05;3.58;;;;;;;11.96;100.00;99504.47;5250147;28;20032;-78
2024/04/01 09:31:18;;;;;;;6.78;3.97;;;;;;;11.86;100.00;99495.00;5252423;28;20738;-78
2024/04/01 09:33:51;;;;;;;5.15;4.43;;;;;;;11.87;100.00;99501.88;5250490;28;20047;-78
2024/04/01 09:36:23;;;;;;;6.20;4.30;;;;;;;11.95;100.00;99506.28;5247804;28;20261;-78
2024/04/01 09:38:57;;;;;;;5.72;3.90;;;;;;;11.91;100.00;99504.97;5249136;28;20028;-78
2024/04/01 09:41:30;;;;;;;6.45;4.35;;;;;;;11.97;100.00;99509.56;5249819;28;20044;-78
2024/04/01 09:44:02;;;;;;;5.80;3.97;;;;;;;12.02;100.00;99515.09;5250636;28;20042;-78
2024/04/01 09:46:34;;;;;;;6.18;4.38;;;;;;;12.05;100.00;99516.56;5250452;28;20083;-78
2024/04/01 09:49:06;;;;;;;5.72;4.88;;;;;;;12.06;100.00;99518.19;5248762;28;20021;-78
2024/04/01 09:51:38;;;;;;;6.60;4.32;;;;;;;12.16;100.00;99518.81;5248417;28;20110;-77
2024/04/01 09:54:10;;;;;;;6.28;4.90;;;;;;;12.18;100.00;99509.75;5247956;28;20879;-77
2024/04/01 09:57:14;;;;;;;7.03;4.78;;;;;;;12.57;100.00;99521.16;5244648;28;20025;-77
2024/04/01 10:00:09;;;;;;;5.55;4.93;;;;;;;12.58;100.00;99525.44;5244537;28;20502;-77
2024/04/01 10:03:24;;;;;;;8.38;4.90;;;;;;;12.69;100.00;99525.03;5244161;28;20082;-77
2024/04/01 10:06:18;;;;;;;7.07;4.63;;;;;;;12.72;100.00;99532.53;5244182;28;20043;-77
2024/04/01 10:09:29;;;;;;;6.60;4.50;;;;;;;12.69;100.00;99538.16;5245286;28;20037;-77
2024/04/01 10:12:29;;;;;;;5.43;4.68;;;;;;;12.60;100.00;99542.63;5246784;28;20059;-77
2024/04/01 10:15:42;;;;;;;4.97;4.13;;;;;;;12.83;100.00;99542.63;5244532;28;20033;-76
2024/04/01 10:18:37;;;;;;;6.07;4.07;;;;;;;12.63;100.00;99541.47;5205539;28;20041;-77
2024/04/01 10:21:18;;;;;;;6.80;4.50;;;;;;;12.63;100.00;99552.81;5245608;28;20033;-77
2024/04/01 10:24:24;;;;;;;5.35;4.20;;;;;;;12.67;100.00;99548.00;5244960;28;20037;-77
2024/04/01 10:27:02;;;;;;;8.40;4.28;;;;;;;12.65;100.00;99552.63;5245934;28;20119;-77
2024/04/01 10:30:02;;;;;;;5.38;4.38;;;;;;;12.88;100.00;99550.00;5244640;28;20430;-77
2024/04/01 10:32:47;;;;;;;5.25;4.05;;;;;;;12.69;100.00;99553.09;5242841;28;20029;-77
2024/04/01 10:35:28;;;;;;;6.35;4.00;;;;;;;12.60;100.00;99555.78;5245058;28;20037;-77
2024/04/01 10:39:01;;;;;;;5.32;4.50;;;;;;;13.02;100.00;99551.84;5245228;28;20590;-77
2024/04/01 10:42:11;;;;;;;6.70;4.57;;;;;;;13.04;100.00;99560.38;5172322;28;20494;-77
2024/04/01 10:45:01;;;;;;;7.07;4.53;;;;;;;12.90;100.00;99561.16;5244415;28;20041;-77
2024/04/01 10:48:15;;;;;;;8.20;4.63;;;;;;;13.10;100.00;99558.84;5245223;28;20033;-77
2024/04/01 10:51:26;;;;;;;4.95;3.63;;;;;;;13.18;100.00;99571.91;5236847;28;20047;-77
2024/04/01 10:54:01;;;;;;;4.82;4.05;;;;;;;12.92;100.00;99567.06;5244718;28;20674;-77
2024/04/01 10:57:03;;;;;;;5.00;4.00;;;;;;;13.32;100.00;99572.97;5242427;28;20032;-77
2024/04/01 11:00:05;;;;;;;7.70;4.15;;;;;;;13.15;100.00;99564.41;5243548;28;20040;-77
2024/04/01 11:03:02;;;;;;;6.35;4.13;;;;;;;13.30;100.00;99586.31;5245072;28;20037;-77
2024/04/01 11:06:11;;;;;;;6.22;3.80;;;;;;;13.59;100.00;99603.13;5244916;28;20029;-77
2024/04/01 11:09:02;;;;;;;4.90;3.67;;;;;;;13.44;100.00;99602.28;5243937;28;20052;-77
2024/04/01 11:12:12;;;;;;;6.22;3.88;;;;;;;13.62;100.00;99600.97;5245366;28;20044;-77
2024/04/01 11:14:49;;;;;;;4.60;3.58;;;;;;;13.57;100.00;99615.66;5243701;28;20044;-77
2024/04/01 11:17:22;;;;;;;7.63;3.85;;;;;;;13.54;100.00;99603.69;5243567;28;20024;-78
2024/04/01 11:20:20;;;;;;;5.47;2.95;;;;;;;13.97;100.00;99618.84;5246669;28;20048;-77
2024/04/01 11:23:06;;;;;;;6.40;3.22;;;;;;;13.92;100.00;99611.50;5246763;28;20056;-78
2024/04/01 11:26:09;;;;;;;4.13;2.80;;;;;;;14.03;100.00;99610.25;5247972;28;20363;-78
2024/04/01 11:28:50;;;;;;;5.00;2.90;;;;;;;13.86;100.00;99612.22;5245916;28;20510;-77
2024/04/01 11:31:24;;;;;;;5.18;2.38;;;;;;;13.96;100.00;99622.50;5247696;28;20375;-78
2024/04/01 11:34:14;;;;;;;5.13;2.90;;;;;;;14.10;100.00;99619.03;5247183;28;20052;-78
2024/04/01 11:37:04;;;;;;;4.20;2.35;;;;;;;14.44;100.00;99615.00;5246900;28;20497;-78
2024/04/01 11:39:40;;;;;;;3.97;2.38;;;;;;;14.36;100.00;99626.47;5248023;28;20044;-78
2024/04/01 11:42:15;;;;;;;6.63;2.63;;;;;;;14.35;100.00;99614.28;5229840;28;20048;-78
2024/04/01 11:44:48;;;;;;;3.88;2.00;;;;;;;14.40;100.00;99627.72;5246102;28;20059;-78
2024/04/01 11:47:23;;;;;;;2.47;1.63;;;;;;;14.47;100.00;99633.91;5244640;28;20060;-77
2024/04/01 11:49:56;;;;;;;4.82;1.92;;;;;;;14.44;100.00;99647.44;5223640;28;20041;-77
2024/04/01 11:52:27;;;;;;;4.05;1.75;;;;;;;14.60;100.00;99638.53;5243411;28;20028;-78
2024/04/01 11:55:12;;;;;;;3.95;1.98;;;;;;;14.80;100.00;99644.81;5242552;28;20569;-78
2024/04/01 11:57:44;;;;;;;3.22;1.80;;;;;;;14.58;100.00;99644.00;5241720;28;20024;-76
2024/04/01 12:00:17;;;;;;;3.67;1.67;;;;;;;14.60;99.06;99646.44;5243596;28;20040;-77
2024/04/01 12:02:53;;;;;;;5.97;1.90;;;;;;;14.64;97.60;99634.50;5244906;28;20056;-78